首页
METAR-TAF:

METAR-TAF

机场 :

查塔努加, 田纳西州, 美国

纬度: 35-02-00N, 经度: 085-12-00W, 海拔: 207米

当前天气观测

该预报发布于42分钟前的17:18 UTC
风速5节,风向西南
温度 27°C
湿度 70%
气压 1023 hPa
能見度: 16.1公里
散云层高于2400英尺
散云层高于3700英尺
多云层高于14000英尺
阴天层高于23000英尺

METAR: KCHA 241718Z 23005KT 10SM SCT024 SCT037 BKN140 OVC230 27/21 A3021 RMK AO2 T02720211

时间: 14:00 (18:00 UTC)

预报

该预报发布于20分钟前的17:40 UTC
预报有效从24日的 18点(UTC)到 25日的 18点(UTC)
风速5节,风向西南
能見度: 10公里
散云层高于2000英尺
多云层高于7000英尺
附近有阵雨
从 25日的 0400点(UTC)
风速节,风向
能見度: 9.7公里
多云层高于3500英尺
轻雾
从 25日的 0800点(UTC)
风速节,风向
能見度: 6.4公里
阴天层高于1000英尺
轻雾, 附近有阵雨
几率 30%
从 25日的 08点(UTC)到 25日的 14点(UTC)
能見度: 3.2公里
从 25日的 1400点(UTC)
风速4节,风向多变
能見度: 10公里
多云层高于1500英尺
附近有阵雨,

TAF: KCHA 241740Z 2418/2518 22005KT P6SM VCSH SCT020 BKN070 FM250400 00000KT 6SM BR BKN035 FM250800 00000KT 4SM BR VCSH OVC010 PROB30 2508/2514 2SM RA FM251400 VRB04KT P6SM VCSH BKN015

超过4000个机场的气象观测和天气预报(METAR&TAF报告)。

可查询的气象台以黄色和红色小点在地图上表示。

将鼠标移到小点上方,可查看气象台名称。

然后点击查看天气观测和预报。

如需切换地图:点击带黑十字的绿色按钮放大地图;点击带横线的绿色按钮缩小地图;或者点击绿色箭头查看邻近地区的地图。


METAR-TAF: